Time;durP1;ratioP1;P1;durP2;ratioP2;P2;SDS_P1;SDS_P2;PMS_P1;PMS_P2;Temp;Humidity;BMP_temperature;BMP_pressure;BME280_temperature;BME280_humidity;BME280_pressure;Samples;Min_cycle;Max_cycle;Signal;HPM_P1;HPM_P2
2021/03/05 00:00:18;;;;;;;10.70;4.90;;;;;;;0.88;81.10;100386.59;99543;1171;86778;-62
2021/03/05 00:02:44;;;;;;;8.47;4.43;;;;;;;0.87;81.22;100396.38;99555;1172;75685;-61
2021/03/05 00:04:49;;;;;;;10.20;4.50;;;;;;;0.85;81.23;100397.48;99557;1171;88902;-62
2021/03/05 00:06:55;;;;;;;11.20;4.50;;;;;;;0.80;81.21;100389.86;99530;1171;82390;-62
2021/03/05 00:09:01;;;;;;;13.05;4.60;;;;;;;0.86;81.08;100392.02;99562;1171;67023;-68
2021/03/05 00:11:06;;;;;;;9.40;4.65;;;;;;;0.85;81.32;100398.30;99547;1172;87955;-68
2021/03/05 00:13:13;;;;;;;9.60;4.40;;;;;;;0.87;81.26;100403.50;99552;1172;76016;-68
2021/03/05 00:15:25;;;;;;;10.40;4.75;;;;;;;0.84;80.95;100401.09;99559;1172;89721;-68
2021/03/05 00:17:34;;;;;;;10.25;4.75;;;;;;;0.83;80.95;100405.56;99536;1171;81578;-68
2021/03/05 00:19:41;;;;;;;7.40;3.87;;;;;;;0.84;80.83;100395.78;99541;1172;66970;-62
2021/03/05 00:21:47;;;;;;;10.40;3.90;;;;;;;0.81;80.99;100398.69;99562;1171;87379;-62
2021/03/05 00:23:55;;;;;;;9.75;4.20;;;;;;;0.77;80.77;100405.25;99557;1166;74804;-62
2021/03/05 00:26:01;;;;;;;9.50;3.67;;;;;;;0.76;80.99;100403.55;99576;1170;89286;-61
2021/03/05 00:28:08;;;;;;;9.35;3.80;;;;;;;0.74;80.82;100401.03;99543;1172;83154;-62
2021/03/05 00:30:16;;;;;;;8.35;3.75;;;;;;;0.73;80.90;100395.82;99568;1172;67053;-61
2021/03/05 00:32:22;;;;;;;11.30;4.00;;;;;;;0.72;80.93;100402.09;99546;1172;87619;-61
2021/03/05 00:34:30;;;;;;;8.70;3.90;;;;;;;0.68;80.81;100406.00;99559;1171;74887;-70
2021/03/05 00:36:36;;;;;;;11.20;4.25;;;;;;;0.68;80.71;100400.68;99560;1172;88670;-68
2021/03/05 00:38:45;;;;;;;8.55;3.90;;;;;;;0.64;81.01;100405.39;99520;1172;82477;-68
2021/03/05 00:40:55;;;;;;;6.40;3.30;;;;;;;0.62;80.59;100401.18;99544;1172;67057;-62
2021/03/05 00:43:02;;;;;;;7.40;3.50;;;;;;;0.58;80.73;100401.42;99543;1167;86792;-61
2021/03/05 00:45:11;;;;;;;7.73;3.33;;;;;;;0.52;80.87;100398.45;99569;1172;75402;-62
2021/03/05 00:47:17;;;;;;;9.35;3.65;;;;;;;0.50;80.74;100401.21;99569;1172;88838;-62
2021/03/05 00:49:23;;;;;;;10.40;3.30;;;;;;;0.49;80.47;100399.55;99546;1172;83211;-61
2021/03/05 00:51:29;;;;;;;7.35;3.30;;;;;;;0.47;80.79;100397.95;99551;1167;67083;-62
2021/03/05 00:53:34;;;;;;;9.57;3.73;;;;;;;0.45;80.61;100399.90;99544;1172;87711;-62
2021/03/05 00:55:40;;;;;;;19.50;8.70;;;;;;;0.41;80.53;100386.01;99562;1170;74721;-62
2021/03/05 00:57:46;;;;;;;74.40;32.00;;;;;;;0.36;80.58;100388.20;99463;1173;90117;-62
2021/03/05 00:59:54;;;;;;;125.10;52.00;;;;;;;0.41;80.49;100393.98;99550;1167;82233;-69
2021/03/05 01:02:03;;;;;;;119.35;51.05;;;;;;;0.38;80.85;100396.92;99541;1167;66949;-69
2021/03/05 01:04:10;;;;;;;43.90;18.70;;;;;;;0.38;80.77;100399.58;99539;1171;87045;-69
2021/03/05 01:06:19;;;;;;;61.20;28.70;;;;;;;0.29;80.53;100397.66;99567;1171;74742;-69
2021/03/05 01:08:24;;;;;;;30.50;16.25;;;;;;;0.27;80.58;100394.28;99558;1172;89695;-69
2021/03/05 01:10:30;;;;;;;23.30;13.00;;;;;;;0.26;80.45;100400.55;99539;1168;82535;-70
2021/03/05 01:12:36;;;;;;;16.50;7.60;;;;;;;0.27;80.88;100401.41;99559;1171;66873;-69
2021/03/05 01:14:42;;;;;;;42.15;19.90;;;;;;;0.30;80.34;100395.84;99547;1172;87966;-70
2021/03/05 01:16:51;;;;;;;52.00;26.75;;;;;;;0.27;80.35;100391.63;99554;1172;75391;-68
2021/03/05 01:18:57;;;;;;;56.00;25.10;;;;;;;0.28;80.46;100389.79;99586;1172;89422;-63
2021/03/05 01:21:07;;;;;;;93.40;43.75;;;;;;;0.27;80.61;100391.63;99548;1167;81706;-63
2021/03/05 01:23:15;;;;;;;65.60;32.25;;;;;;;0.24;80.61;100381.25;99565;1170;66858;-63
2021/03/05 01:25:25;;;;;;;53.35;25.55;;;;;;;0.24;80.88;100391.88;99440;1171;86539;-62
2021/03/05 01:27:30;;;;;;;56.75;28.75;;;;;;;0.22;80.47;100387.66;99493;1171;75099;-62
2021/03/05 01:29:36;;;;;;;19.30;8.90;;;;;;;0.26;80.52;100391.73;99562;1166;88340;-63
2021/03/05 01:31:42;;;;;;;46.93;23.77;;;;;;;0.25;80.57;100388.23;99546;1172;82709;-62
2021/03/05 01:33:51;;;;;;;80.55;40.20;;;;;;;0.24;80.38;100391.02;99452;1174;66835;-62
2021/03/05 01:35:57;;;;;;;100.95;51.45;;;;;;;0.20;80.70;100387.77;99549;1172;87404;-68
2021/03/05 01:38:03;;;;;;;127.00;60.45;;;;;;;0.20;80.67;100395.73;99573;1172;74634;-69
2021/03/05 01:40:15;;;;;;;46.50;22.50;;;;;;;0.23;80.78;100398.14;99555;1172;89327;-63
2021/03/05 01:42:21;;;;;;;60.40;22.00;;;;;;;0.20;80.52;100386.91;99523;1172;81827;-63
2021/03/05 01:44:27;;;;;;;73.37;27.50;;;;;;;0.21;80.69;100389.46;99538;1167;66897;-69
2021/03/05 01:46:33;;;;;;;95.90;31.20;;;;;;;0.19;80.45;100388.75;99548;1172;87369;-69
2021/03/05 01:48:41;;;;;;;66.20;24.70;;;;;;;0.19;80.84;100380.78;99557;1172;75672;-70
2021/03/05 01:50:59;;;;;;;32.10;11.10;;;;;;;0.14;80.95;100390.09;99546;1171;89845;-63
2021/03/05 01:53:07;;;;;;;19.50;6.70;;;;;;;0.19;80.34;100394.06;99512;1172;82245;-63
2021/03/05 01:55:14;;;;;;;60.90;19.80;;;;;;;0.16;80.58;100396.11;99443;1171;67164;-69
2021/03/05 01:57:23;;;;;;;32.80;10.90;;;;;;;0.15;80.82;100395.27;99426;1174;86889;-69
2021/03/05 01:59:32;;;;;;;136.20;42.10;;;;;;;0.15;80.43;100399.72;99554;1171;74857;-63
2021/03/05 02:01:38;;;;;;;183.70;58.10;;;;;;;0.11;80.95;100395.64;99541;1171;90080;-63
2021/03/05 02:03:44;;;;;;;137.55;42.20;;;;;;;0.11;80.56;100401.77;99544;1172;82850;-64
2021/03/05 02:05:50;;;;;;;94.50;30.20;;;;;;;0.11;80.25;100404.42;99568;1172;67101;-69
2021/03/05 02:07:56;;;;;;;189.85;67.50;;;;;;;0.09;80.70;100410.83;99559;1172;86674;-69
2021/03/05 02:10:02;;;;;;;277.90;94.20;;;;;;;0.05;80.19;100407.59;99554;1171;74489;-69
2021/03/05 02:12:10;;;;;;;179.70;62.05;;;;;;;0.05;80.85;100412.91;99487;1172;89928;-69
2021/03/05 02:14:16;;;;;;;113.45;40.10;;;;;;;0.08;80.34;100411.81;99546;1172;82634;-63
2021/03/05 02:16:39;;;;;;;84.40;31.20;;;;;;;0.04;80.81;100413.02;99548;1166;67031;-61
2021/03/05 02:18:57;;;;;;;28.60;9.30;;;;;;;0.02;80.88;100413.15;99437;1174;88103;-60
2021/03/05 02:21:27;;;;;;;39.55;13.95;;;;;;;0.00;80.81;100413.25;99556;1172;75538;-68
2021/03/05 02:24:09;;;;;;;107.30;42.30;;;;;;;-0.01;80.68;100416.90;99543;1172;89142;-68
2021/03/05 02:26:58;;;;;;;68.00;25.55;;;;;;;-0.03;80.73;100416.15;99553;1167;82208;-62
2021/03/05 02:29:32;;;;;;;71.50;27.30;;;;;;;-0.06;80.86;100418.23;99550;1170;66984;-69
2021/03/05 02:31:43;;;;;;;156.70;57.05;;;;;;;-0.03;81.10;100423.30;99554;1168;87045;-69
2021/03/05 02:33:57;;;;;;;65.35;26.45;;;;;;;-0.03;80.38;100420.64;99556;1172;75238;-67
2021/03/05 02:36:04;;;;;;;39.70;14.83;;;;;;;0.01;80.81;100430.03;99564;1172;89851;-68
2021/03/05 02:38:13;;;;;;;41.40;16.70;;;;;;;-0.01;80.96;100419.55;99539;1172;82740;-68
2021/03/05 02:40:27;;;;;;;36.20;13.80;;;;;;;0.02;80.73;100415.80;99563;1171;67155;-68
2021/03/05 02:42:37;;;;;;;41.70;17.05;;;;;;;0.02;80.48;100425.58;99560;1172;86258;-69
2021/03/05 02:44:48;;;;;;;24.30;10.25;;;;;;;0.02;80.67;100423.77;99474;1174;77092;-62
2021/03/05 02:47:02;;;;;;;21.30;8.40;;;;;;;0.03;80.39;100424.63;99440;1174;89380;-62
2021/03/05 02:49:11;;;;;;;19.57;7.60;;;;;;;-0.01;80.44;100424.86;99421;1174;82412;-62
2021/03/05 02:51:20;;;;;;;17.13;6.23;;;;;;;-0.02;80.71;100425.81;99453;1174;66889;-62
2021/03/05 02:53:30;;;;;;;20.30;7.80;;;;;;;-0.01;80.59;100421.36;99528;1172;87050;-62
2021/03/05 02:55:38;;;;;;;32.90;15.30;;;;;;;-0.02;80.44;100433.78;99448;1171;74674;-62
2021/03/05 02:57:47;;;;;;;24.63;10.40;;;;;;;-0.05;80.23;100420.74;99556;1172;90061;-62
2021/03/05 02:59:54;;;;;;;10.85;5.60;;;;;;;-0.04;80.62;100430.41;99513;1171;82538;-62
2021/03/05 03:02:01;;;;;;;10.75;4.20;;;;;;;-0.08;80.09;100428.09;99568;1171;66800;-62
2021/03/05 03:04:08;;;;;;;116.25;56.15;;;;;;;-0.10;80.21;100425.58;99550;1167;87346;-69
2021/03/05 03:06:18;;;;;;;110.60;43.60;;;;;;;-0.13;80.50;100423.16;99569;1167;75903;-69
2021/03/05 03:08:25;;;;;;;77.90;35.40;;;;;;;-0.15;80.40;100440.18;99548;1172;89949;-69
2021/03/05 03:10:34;;;;;;;273.70;118.30;;;;;;;-0.14;80.22;100436.57;99473;1172;83429;-70
2021/03/05 03:12:40;;;;;;;91.70;43.05;;;;;;;-0.16;80.68;100441.13;99581;1172;66883;-69
2021/03/05 03:14:48;;;;;;;39.25;18.65;;;;;;;-0.18;80.42;100435.11;99551;1172;89611;-62
2021/03/05 03:16:55;;;;;;;57.45;22.85;;;;;;;-0.17;80.73;100437.66;99555;1172;75846;-63
2021/03/05 03:19:01;;;;;;;127.40;44.90;;;;;;;-0.24;80.80;100443.55;99443;1174;89769;-63
2021/03/05 03:21:09;;;;;;;30.95;11.90;;;;;;;-0.23;80.83;100447.90;99507;1172;83031;-63
2021/03/05 03:23:14;;;;;;;53.90;19.30;;;;;;;-0.25;80.45;100449.84;99566;1172;66906;-61
2021/03/05 03:25:26;;;;;;;23.47;9.60;;;;;;;-0.24;80.31;100443.55;99434;1174;87807;-63
2021/03/05 03:27:32;;;;;;;37.90;16.13;;;;;;;-0.27;80.22;100449.09;99438;1171;74647;-63
2021/03/05 03:29:41;;;;;;;11.83;4.77;;;;;;;-0.27;80.46;100455.25;99444;1167;90014;-63
2021/03/05 03:31:47;;;;;;;93.40;35.50;;;;;;;-0.32;80.72;100451.26;99419;1174;83213;-62
2021/03/05 03:33:53;;;;;;;38.80;14.20;;;;;;;-0.39;80.18;100448.25;99446;1174;66885;-69
2021/03/05 03:36:05;;;;;;;27.95;11.65;;;;;;;-0.41;80.46;100451.99;99542;1166;87325;-69
2021/03/05 03:38:12;;;;;;;34.15;13.85;;;;;;;-0.43;80.52;100449.44;99557;1171;76014;-70
2021/03/05 03:40:21;;;;;;;39.00;17.15;;;;;;;-0.52;80.41;100455.45;99575;1171;88578;-63
2021/03/05 03:42:27;;;;;;;52.00;21.60;;;;;;;-0.56;80.06;100456.66;99537;1171;83095;-63
2021/03/05 03:44:33;;;;;;;28.45;11.95;;;;;;;-0.60;80.12;100456.04;99538;1168;66809;-63
2021/03/05 03:46:43;;;;;;;18.30;7.50;;;;;;;-0.65;80.40;100466.16;99550;1166;88080;-63
2021/03/05 03:48:59;;;;;;;10.60;4.45;;;;;;;-0.64;80.21;100470.52;99434;1171;75157;-64
2021/03/05 03:51:08;;;;;;;17.30;7.20;;;;;;;-0.71;80.32;100477.23;99555;1166;89115;-63
2021/03/05 03:53:18;;;;;;;29.45;13.90;;;;;;;-0.81;81.11;100473.59;99424;1167;82350;-63
2021/03/05 03:55:24;;;;;;;53.80;24.50;;;;;;;-0.82;80.97;100474.54;99576;1172;67111;-63
2021/03/05 03:57:31;;;;;;;17.90;7.75;;;;;;;-0.83;80.69;100478.17;99537;1171;87992;-63
2021/03/05 03:59:38;;;;;;;24.10;12.20;;;;;;;-0.83;80.56;100478.17;99445;1171;75704;-69
2021/03/05 04:01:48;;;;;;;21.80;10.15;;;;;;;-0.81;81.05;100478.89;99441;1174;89931;-70
2021/03/05 04:03:56;;;;;;;19.90;9.70;;;;;;;-0.83;81.07;100482.63;99560;1171;81974;-63
2021/03/05 04:06:03;;;;;;;16.40;6.60;;;;;;;-0.78;80.49;100489.28;99450;1174;66716;-63
2021/03/05 04:08:11;;;;;;;18.65;9.10;;;;;;;-0.79;81.09;100490.22;99436;1174;88020;-63
2021/03/05 04:10:19;;;;;;;17.30;7.40;;;;;;;-0.80;80.60;100491.20;99450;1174;76165;-62
2021/03/05 04:12:30;;;;;;;20.45;9.85;;;;;;;-0.71;81.01;100494.95;99437;1174;90064;-63
2021/03/05 04:14:37;;;;;;;18.80;9.10;;;;;;;-0.70;80.90;100505.45;99429;1171;82693;-70
2021/03/05 04:16:43;;;;;;;32.20;15.25;;;;;;;-0.73;80.73;100500.38;99438;1174;66853;-69
2021/03/05 04:18:54;;;;;;;32.60;15.20;;;;;;;-0.73;80.70;100505.68;99554;1172;87416;-69
2021/03/05 04:21:04;;;;;;;19.93;8.83;;;;;;;-0.74;81.23;100498.67;99571;1167;75268;-62
2021/03/05 04:23:10;;;;;;;23.20;13.20;;;;;;;-0.74;81.40;100503.98;99443;1171;88799;-62
2021/03/05 04:25:18;;;;;;;15.75;8.00;;;;;;;-0.70;81.21;100504.60;99429;1171;82120;-70
2021/03/05 04:27:27;;;;;;;54.05;31.65;;;;;;;-0.73;81.31;100505.68;99440;1175;66787;-69
2021/03/05 04:29:32;;;;;;;33.40;18.90;;;;;;;-0.72;81.38;100502.08;99436;1168;86390;-68
2021/03/05 04:31:43;;;;;;;18.40;11.00;;;;;;;-0.70;81.42;100507.26;99572;1171;75370;-68
2021/03/05 04:33:49;;;;;;;18.10;10.60;;;;;;;-0.70;81.23;100509.91;99571;1172;88480;-64
2021/03/05 04:35:55;;;;;;;13.50;8.47;;;;;;;-0.69;80.75;100514.27;99525;1172;81669;-68
2021/03/05 04:38:01;;;;;;;11.00;6.60;;;;;;;-0.68;80.69;100516.78;99558;1167;67083;-68
2021/03/05 04:40:10;;;;;;;12.40;7.80;;;;;;;-0.70;80.93;100518.72;99538;1168;88005;-61
2021/03/05 04:42:15;;;;;;;15.00;7.35;;;;;;;-0.75;80.79;100515.57;99565;1172;75355;-62
2021/03/05 04:44:21;;;;;;;7.15;4.25;;;;;;;-0.78;80.80;100518.45;99558;1171;88890;-62
2021/03/05 04:46:28;;;;;;;10.20;4.40;;;;;;;-0.82;80.90;100518.77;99534;1171;82928;-62
2021/03/05 04:48:34;;;;;;;13.05;5.10;;;;;;;-0.82;81.33;100521.42;99559;1172;66884;-62
2021/03/05 04:50:39;;;;;;;8.10;4.50;;;;;;;-0.83;80.88;100522.40;99537;1172;88029;-70
2021/03/05 04:52:45;;;;;;;7.40;3.20;;;;;;;-0.85;81.49;100527.80;99565;1171;75272;-70
2021/03/05 04:54:51;;;;;;;6.60;3.00;;;;;;;-0.94;81.50;100523.20;99444;1167;88362;-62
2021/03/05 04:56:57;;;;;;;6.65;3.10;;;;;;;-0.99;81.33;100530.62;99541;1167;81545;-62
2021/03/05 04:59:02;;;;;;;7.03;3.07;;;;;;;-0.98;80.96;100527.02;99451;1174;67060;-69
2021/03/05 05:01:08;;;;;;;5.93;3.20;;;;;;;-0.96;81.15;100535.70;99538;1172;87662;-69
2021/03/05 05:03:14;;;;;;;8.10;3.20;;;;;;;-0.92;81.31;100531.03;99555;1172;75719;-69
2021/03/05 05:05:20;;;;;;;8.85;3.05;;;;;;;-0.94;81.13;100539.11;99444;1168;90307;-68
2021/03/05 05:07:26;;;;;;;8.00;3.20;;;;;;;-0.96;81.57;100541.00;99422;1171;82329;-69
2021/03/05 05:09:31;;;;;;;8.65;3.60;;;;;;;-0.99;81.80;100541.23;99442;1168;67176;-63
2021/03/05 05:11:37;;;;;;;7.15;3.60;;;;;;;-0.99;81.31;100535.10;99553;1171;86467;-62
2021/03/05 05:13:47;;;;;;;7.83;3.20;;;;;;;-0.96;81.81;100541.00;99546;1171;76223;-62
2021/03/05 05:15:56;;;;;;;9.67;3.87;;;;;;;-0.94;81.26;100539.11;99547;1172;89179;-68
2021/03/05 05:18:03;;;;;;;9.57;3.80;;;;;;;-1.00;81.31;100544.86;99555;1171;82452;-68
2021/03/05 05:20:13;;;;;;;5.95;3.40;;;;;;;-0.99;81.57;100553.66;99561;1172;66844;-69
2021/03/05 05:22:19;;;;;;;7.65;3.40;;;;;;;-1.02;81.36;100551.23;99559;1172;87127;-69
2021/03/05 05:24:24;;;;;;;9.40;3.70;;;;;;;-1.08;81.24;100555.17;99556;1166;75305;-69
2021/03/05 05:26:30;;;;;;;8.05;3.70;;;;;;;-1.06;81.78;100555.05;99546;1171;90230;-69
2021/03/05 05:28:36;;;;;;;6.83;3.40;;;;;;;-1.12;81.25;100558.98;99540;1172;82726;-69
2021/03/05 05:30:41;;;;;;;11.17;4.30;;;;;;;-1.09;81.39;100563.22;99569;1172;66870;-62
2021/03/05 05:32:47;;;;;;;8.10;3.80;;;;;;;-1.07;81.44;100563.98;99546;1171;87692;-62
2021/03/05 05:34:56;;;;;;;7.80;3.65;;;;;;;-1.06;81.94;100566.50;99543;1171;76399;-69
2021/03/05 05:37:05;;;;;;;10.15;3.85;;;;;;;-1.06;81.96;100577.11;99455;1171;88195;-69
2021/03/05 05:39:10;;;;;;;8.40;3.40;;;;;;;-1.05;81.43;100570.86;99562;1172;82697;-62
2021/03/05 05:41:16;;;;;;;11.60;3.93;;;;;;;-0.98;81.61;100579.19;99442;1171;67010;-62
2021/03/05 05:43:22;;;;;;;8.33;3.97;;;;;;;-1.03;81.67;100578.69;99434;1174;87803;-62
2021/03/05 05:45:28;;;;;;;9.10;4.10;;;;;;;-0.97;81.70;100581.75;99453;1174;75572;-62
2021/03/05 05:47:38;;;;;;;10.55;4.45;;;;;;;-0.93;81.67;100579.70;99551;1172;90046;-62
2021/03/05 05:49:47;;;;;;;7.70;3.60;;;;;;;-0.90;81.92;100584.78;99424;1168;82331;-62
2021/03/05 05:51:58;;;;;;;9.05;3.80;;;;;;;-0.82;81.46;100588.56;99560;1172;67078;-63
2021/03/05 05:54:10;;;;;;;9.15;3.60;;;;;;;-0.80;81.92;100593.78;99557;1166;87722;-62
2021/03/05 05:56:17;;;;;;;8.05;3.75;;;;;;;-0.85;82.03;100593.27;99443;1174;75759;-62
2021/03/05 05:58:23;;;;;;;7.80;3.60;;;;;;;-0.85;81.78;100602.05;99436;1174;89172;-62
2021/03/05 06:00:29;;;;;;;9.90;3.70;;;;;;;-0.81;81.80;100605.33;99555;1172;81950;-69
2021/03/05 06:02:37;;;;;;;8.63;4.33;;;;;;;-0.84;81.79;100609.05;99443;1174;66888;-71
2021/03/05 06:04:43;;;;;;;9.40;4.70;;;;;;;-0.82;81.64;100612.44;99437;1174;87014;-74
2021/03/05 06:06:49;;;;;;;10.20;5.00;;;;;;;-0.86;82.02;100612.78;99452;1174;75118;-73
2021/03/05 06:08:58;;;;;;;10.10;5.10;;;;;;;-0.84;81.68;100617.02;99441;1171;89592;-60
2021/03/05 06:11:04;;;;;;;11.20;4.50;;;;;;;-0.81;81.70;100618.59;99412;1174;82780;-59
2021/03/05 06:13:10;;;;;;;10.27;4.60;;;;;;;-0.80;81.80;100631.76;99454;1174;66514;-60
2021/03/05 06:15:18;;;;;;;14.40;7.50;;;;;;;-0.83;81.61;100628.47;99439;1174;86649;-66
2021/03/05 06:17:41;;;;;;;8.80;4.60;;;;;;;-0.80;81.37;100642.36;99451;1174;75687;-68
2021/03/05 06:19:48;;;;;;;8.57;3.63;;;;;;;-0.73;81.85;100648.05;99442;1174;89002;-62
2021/03/05 06:21:54;;;;;;;9.70;4.00;;;;;;;-0.67;81.54;100645.81;99428;1174;82217;-62
2021/03/05 06:24:03;;;;;;;8.60;4.15;;;;;;;-0.54;81.65;100647.55;99461;1174;67134;-73
2021/03/05 06:26:09;;;;;;;6.50;3.70;;;;;;;-0.40;81.91;100653.54;99547;1168;88486;-72
2021/03/05 06:28:19;;;;;;;7.60;4.10;;;;;;;-0.29;81.98;100650.94;99454;1171;75265;-72
2021/03/05 06:30:32;;;;;;;9.10;4.40;;;;;;;-0.12;81.43;100662.95;99557;1172;89896;-61
2021/03/05 06:32:42;;;;;;;7.20;3.70;;;;;;;0.09;81.23;100674.60;99430;1174;82933;-61
2021/03/05 06:34:53;;;;;;;7.50;4.00;;;;;;;0.26;81.53;100674.17;99441;1168;67048;-61
2021/03/05 06:37:05;;;;;;;9.90;4.30;;;;;;;0.64;81.19;100676.53;99445;1171;87880;-62
2021/03/05 06:39:13;;;;;;;6.60;3.50;;;;;;;0.72;80.73;100681.23;99463;1174;74425;-62
2021/03/05 06:41:25;;;;;;;7.40;3.80;;;;;;;0.63;80.51;100680.17;99443;1171;89196;-62
2021/03/05 06:43:46;;;;;;;7.33;4.10;;;;;;;0.57;80.30;100681.50;99531;1171;82291;-61
2021/03/05 06:45:51;;;;;;;9.40;4.40;;;;;;;0.61;80.16;100684.73;99449;1171;66825;-72
2021/03/05 06:48:04;;;;;;;9.10;4.20;;;;;;;0.66;80.28;100690.54;99432;1174;87369;-72
2021/03/05 06:50:23;;;;;;;8.75;4.05;;;;;;;0.64;80.20;100689.81;99440;1174;75811;-73
2021/03/05 06:52:36;;;;;;;8.45;4.50;;;;;;;0.72;80.12;100699.84;99437;1174;89340;-72
2021/03/05 06:54:44;;;;;;;8.20;3.87;;;;;;;0.82;80.04;100690.21;99529;1167;81767;-62
2021/03/05 06:56:51;;;;;;;8.20;4.20;;;;;;;0.94;79.84;100695.39;99450;1167;67009;-61
2021/03/05 06:59:06;;;;;;;8.20;4.30;;;;;;;1.01;79.74;100687.80;99544;1167;86970;-62
2021/03/05 07:01:12;;;;;;;8.80;4.00;;;;;;;1.05;79.21;100697.20;99540;1172;75684;-62
2021/03/05 07:03:22;;;;;;;8.00;4.15;;;;;;;1.20;79.64;100690.68;99440;1168;89969;-62
2021/03/05 07:05:53;;;;;;;8.60;4.00;;;;;;;1.28;79.06;100703.36;99536;1167;81605;-74
2021/03/05 07:07:58;;;;;;;9.15;4.15;;;;;;;1.47;78.94;100704.42;99447;1174;66821;-71
2021/03/05 07:10:05;;;;;;;8.90;4.30;;;;;;;1.69;78.65;100704.38;99540;1168;87279;-74
2021/03/05 07:12:14;;;;;;;8.60;4.40;;;;;;;1.65;78.65;100713.57;99555;1171;74527;-74
2021/03/05 07:14:21;;;;;;;8.00;4.20;;;;;;;1.38;78.20;100715.80;99443;1174;89516;-63
2021/03/05 07:16:27;;;;;;;7.23;3.80;;;;;;;1.19;77.94;100713.78;99430;1174;82758;-63
2021/03/05 07:18:33;;;;;;;8.05;3.95;;;;;;;0.97;77.84;100724.41;99563;1171;66867;-62
2021/03/05 07:20:39;;;;;;;8.05;4.00;;;;;;;0.97;78.28;100724.41;99436;1167;87989;-73
2021/03/05 07:22:49;;;;;;;7.70;3.90;;;;;;;0.98;78.22;100718.14;99450;1174;75554;-72
2021/03/05 07:24:58;;;;;;;8.55;4.70;;;;;;;1.08;78.63;100724.42;99443;1171;89040;-73
2021/03/05 07:27:07;;;;;;;7.10;4.00;;;;;;;1.11;78.32;100728.65;99429;1168;81658;-71
2021/03/05 07:29:24;;;;;;;8.60;3.95;;;;;;;1.16;78.10;100727.31;99572;1167;66880;-73
2021/03/05 07:31:34;;;;;;;9.70;3.80;;;;;;;1.17;78.01;100728.17;99551;1172;87127;-74
2021/03/05 07:33:46;;;;;;;8.80;3.80;;;;;;;1.17;77.91;100731.69;99563;1171;75119;-73
2021/03/05 07:35:54;;;;;;;9.63;4.87;;;;;;;1.28;78.00;100729.97;99559;1168;88716;-64
2021/03/05 07:38:03;;;;;;;8.00;3.40;;;;;;;1.30;77.63;100734.20;99544;1171;82894;-63
2021/03/05 07:40:13;;;;;;;7.70;3.80;;;;;;;1.35;77.71;100725.84;99552;1171;66950;-63
2021/03/05 07:42:20;;;;;;;7.70;4.10;;;;;;;1.42;77.77;100721.73;99554;1166;86423;-64
2021/03/05 07:44:29;;;;;;;10.73;5.10;;;;;;;1.45;77.42;100732.14;99582;1171;75620;-72
2021/03/05 07:46:34;;;;;;;11.60;4.70;;;;;;;1.76;77.63;100732.19;99535;1172;89864;-72
2021/03/05 07:48:47;;;;;;;9.65;5.30;;;;;;;2.07;77.53;100729.66;99542;1172;83072;-71
2021/03/05 07:50:54;;;;;;;9.95;5.00;;;;;;;2.57;77.59;100734.28;99560;1171;66825;-61
2021/03/05 07:53:01;;;;;;;11.95;4.75;;;;;;;2.63;77.14;100733.77;99536;1172;87801;-62
2021/03/05 07:55:12;;;;;;;9.20;5.20;;;;;;;2.50;76.43;100733.09;99449;1167;74541;-61
2021/03/05 07:57:47;;;;;;;8.20;4.50;;;;;;;2.43;76.32;100737.26;99437;1174;89268;-62
2021/03/05 07:59:56;;;;;;;9.25;3.65;;;;;;;2.35;76.04;100737.06;99545;1168;81742;-70
2021/03/05 08:02:01;;;;;;;9.05;3.70;;;;;;;2.33;76.05;100742.50;99444;1171;67101;-70
2021/03/05 08:04:07;;;;;;;5.55;3.35;;;;;;;2.38;75.47;100742.14;99537;1171;87203;-71
2021/03/05 08:06:29;;;;;;;9.40;3.90;;;;;;;2.50;76.28;100738.42;99443;1171;75081;-72
2021/03/05 08:08:35;;;;;;;6.15;3.50;;;;;;;3.76;76.07;100736.22;99442;1174;90051;-71
2021/03/05 08:10:46;;;;;;;9.07;4.60;;;;;;;5.12;74.00;100728.78;99565;1171;83376;-70
2021/03/05 08:12:52;;;;;;;6.70;3.90;;;;;;;5.52;73.52;100731.14;99450;1174;67078;-70
2021/03/05 08:15:26;;;;;;;8.80;5.30;;;;;;;5.77;73.38;100726.91;99539;1171;88189;-69
2021/03/05 08:17:38;;;;;;;9.50;6.85;;;;;;;6.16;70.44;100731.05;99446;1168;74700;-69
2021/03/05 08:19:47;;;;;;;9.40;5.40;;;;;;;6.00;70.69;100733.57;99559;1172;88242;-69
2021/03/05 08:22:05;;;;;;;8.60;4.00;;;;;;;5.70;70.78;100744.59;99556;1170;82673;-71
2021/03/05 08:24:27;;;;;;;12.40;3.80;;;;;;;6.15;70.38;100747.31;99435;1168;66918;-63
2021/03/05 08:26:59;;;;;;;8.00;3.70;;;;;;;6.58;69.60;100746.52;99530;1172;88017;-62
2021/03/05 08:29:06;;;;;;;8.30;4.10;;;;;;;5.95;68.62;100738.55;99450;1174;75802;-62
2021/03/05 08:31:39;;;;;;;8.00;4.20;;;;;;;5.67;68.63;100748.42;99551;1167;88819;-62
2021/03/05 08:33:45;;;;;;;7.60;4.45;;;;;;;6.26;69.31;100742.53;99431;1167;81589;-62
2021/03/05 08:35:52;;;;;;;9.20;4.10;;;;;;;7.28;66.86;100746.33;99444;1173;67059;-70
2021/03/05 08:38:05;;;;;;;8.00;4.15;;;;;;;8.47;67.43;100740.69;99436;1174;87797;-72
2021/03/05 08:40:36;;;;;;;8.95;4.65;;;;;;;10.88;66.20;100735.28;99464;1174;75738;-62
2021/03/05 08:42:46;;;;;;;7.25;4.20;;;;;;;12.06;61.87;100723.43;99556;1170;89180;-62
2021/03/05 08:45:11;;;;;;;9.35;4.20;;;;;;;11.45;59.64;100734.70;99540;1170;82029;-62
2021/03/05 08:47:17;;;;;;;10.23;4.40;;;;;;;11.17;59.80;100739.91;99549;1171;66811;-62
2021/03/05 08:49:26;;;;;;;7.30;4.30;;;;;;;10.77;57.51;100733.02;99539;1172;88454;-63
2021/03/05 08:51:35;;;;;;;8.95;4.05;;;;;;;10.76;55.33;100750.27;99567;1171;75123;-61
2021/03/05 08:53:45;;;;;;;8.25;3.90;;;;;;;10.14;56.25;100744.13;99541;1172;89882;-65
2021/03/05 08:55:55;;;;;;;9.20;4.50;;;;;;;9.09;57.54;100752.59;99570;1172;81683;-63
2021/03/05 08:58:09;;;;;;;7.55;4.10;;;;;;;9.17;57.94;100752.60;99550;1167;67031;-62
2021/03/05 09:00:19;;;;;;;8.70;4.70;;;;;;;8.75;57.63;100755.51;99530;1172;86773;-62
2021/03/05 09:02:31;;;;;;;8.70;4.70;;;;;;;8.90;58.83;100753.80;99557;1172;75586;-63
2021/03/05 09:04:45;;;;;;;6.27;3.93;;;;;;;10.24;56.96;100752.01;99557;1172;88487;-71
2021/03/05 09:06:54;;;;;;;6.63;3.33;;;;;;;9.73;55.89;100754.26;99522;1171;82502;-71
2021/03/05 09:09:19;;;;;;;5.80;3.60;;;;;;;9.05;55.12;100761.20;99566;1172;66904;-61
2021/03/05 09:11:32;;;;;;;5.27;2.90;;;;;;;8.17;55.92;100762.81;99458;1174;87650;-62
2021/03/05 09:13:42;;;;;;;9.50;3.87;;;;;;;7.66;56.66;100769.22;99580;1167;74650;-68
2021/03/05 09:15:50;;;;;;;5.40;3.30;;;;;;;7.54;57.06;100771.34;99558;1172;88145;-62
2021/03/05 09:17:58;;;;;;;8.50;3.80;;;;;;;8.93;56.30;100767.97;99430;1171;83050;-63
2021/03/05 09:20:05;;;;;;;5.70;3.70;;;;;;;10.16;56.86;100757.46;99434;1174;66764;-63
2021/03/05 09:22:18;;;;;;;8.10;3.40;;;;;;;11.02;55.40;100766.91;99551;1172;87885;-63
2021/03/05 09:24:24;;;;;;;5.50;2.17;;;;;;;11.71;53.27;100770.27;99554;1166;75589;-64
2021/03/05 09:26:31;;;;;;;4.80;2.90;;;;;;;11.94;51.00;100776.42;99554;1171;88639;-63
2021/03/05 09:28:42;;;;;;;5.80;3.00;;;;;;;12.26;49.29;100765.13;99556;1172;81365;-63
2021/03/05 09:30:52;;;;;;;;;;;;;;;12.55;50.17;100761.50;99553;1171;67143;-62
2021/03/05 09:33:01;;;;;;;7.30;3.00;;;;;;;12.89;48.63;100758.88;99471;1168;87782;-63
2021/03/05 09:35:09;;;;;;;4.57;2.50;;;;;;;13.05;46.41;100776.73;99563;1171;74522;-63
2021/03/05 09:37:18;;;;;;;4.25;1.85;;;;;;;12.92;45.46;100768.50;99501;1172;89045;-63
2021/03/05 09:39:24;;;;;;;5.00;2.50;;;;;;;12.48;44.97;100774.13;99524;1172;83133;-62
2021/03/05 09:41:33;;;;;;;3.60;2.00;;;;;;;12.47;45.76;100769.72;99451;1175;67077;-62
2021/03/05 09:43:39;;;;;;;4.40;2.30;;;;;;;12.49;46.52;100767.68;99432;1171;87638;-63
2021/03/05 09:45:47;;;;;;;3.90;2.10;;;;;;;12.69;46.00;100774.12;99459;1168;75028;-72
2021/03/05 09:47:53;;;;;;;4.30;2.00;;;;;;;12.75;46.14;100772.50;99446;1167;89661;-70
2021/03/05 09:50:21;;;;;;;4.80;2.15;;;;;;;12.50;46.03;100772.05;99434;1167;81754;-66
2021/03/05 09:52:30;;;;;;;3.00;1.60;;;;;;;12.45;43.73;100769.08;99449;1171;66866;-69
2021/03/05 09:54:50;;;;;;;4.05;1.70;;;;;;;12.51;42.63;100781.02;99444;1175;87734;-73
2021/03/05 09:56:59;;;;;;;5.95;2.85;;;;;;;12.51;40.96;100770.19;99446;1171;74557;-64
2021/03/05 09:59:06;;;;;;;3.35;1.80;;;;;;;12.68;42.82;100777.04;99447;1172;89660;-66